Time;durP1;ratioP1;P1;durP2;ratioP2;P2;SDS_P1;SDS_P2;PMS_P1;PMS_P2;Temp;Humidity;BMP_temperature;BMP_pressure;BME280_temperature;BME280_humidity;BME280_pressure;Samples;Min_cycle;Max_cycle;Signal;HPM_P1;HPM_P2
2021/09/25 00:01:22;;;;;;;1.90;1.80;;;18.90;99.10;;;;;;6101938;23;20415;-86
2021/09/25 00:03:51;;;;;;;2.37;2.17;;;18.80;99.10;;;;;;6101960;23;20422;-85
2021/09/25 00:06:22;;;;;;;1.60;1.50;;;18.70;99.30;;;;;;6095659;23;20422;-85
2021/09/25 00:08:52;;;;;;;2.20;1.97;;;18.60;99.60;;;;;;6123033;23;21153;-86
2021/09/25 00:11:21;;;;;;;1.80;1.70;;;18.50;99.90;;;;;;6120496;23;20730;-85
2021/09/25 00:13:48;;;;;;;1.80;1.70;;;18.40;99.90;;;;;;6120119;23;20457;-85
2021/09/25 00:16:17;;;;;;;2.07;1.97;;;18.50;99.90;;;;;;6091829;23;20885;-86
2021/09/25 00:18:57;;;;;;;1.83;1.73;;;18.40;99.90;;;;;;6119911;23;20438;-85
2021/09/25 00:21:26;;;;;;;2.90;2.20;;;18.60;99.90;;;;;;6123701;23;20406;-85
2021/09/25 00:23:53;;;;;;;2.43;2.20;;;18.70;99.80;;;;;;6118455;23;20449;-85
2021/09/25 00:26:23;;;;;;;2.07;1.93;;;18.70;99.80;;;;;;6098033;23;20487;-83
2021/09/25 00:28:50;;;;;;;2.17;2.00;;;18.60;99.90;;;;;;6103350;23;20435;-83
2021/09/25 00:31:17;;;;;;;1.73;1.63;;;18.50;99.90;;;;;;6095808;23;20410;-83
2021/09/25 00:33:46;;;;;;;3.70;2.30;;;18.30;99.90;;;;;;6124344;23;20447;-83
2021/09/25 00:36:13;;;;;;;2.90;2.30;;;18.20;99.90;;;;;;6123102;23;20926;-86
2021/09/25 00:38:40;;;;;;;2.83;2.17;;;18.10;99.90;;;;;;6093614;23;20943;-85
2021/09/25 00:41:10;;;;;;;1.80;1.70;;;18.00;99.90;;;;;;6090005;23;20454;-84
2021/09/25 00:43:39;;;;;;;2.70;2.50;;;18.00;99.90;;;;;;6098023;23;20704;-87
2021/09/25 00:46:06;;;;;;;3.20;2.27;;;18.00;99.90;;;;;;6122652;23;20407;-84
2021/09/25 00:48:34;;;;;;;2.30;2.10;;;18.10;99.90;;;;;;6119115;23;20439;-86
2021/09/25 00:51:01;;;;;;;2.50;2.20;;;18.10;99.90;;;;;;6096654;23;20426;-85
2021/09/25 00:53:28;;;;;;;2.83;2.30;;;18.20;99.90;;;;;;6123485;23;20481;-85
2021/09/25 00:55:55;;;;;;;2.33;1.93;;;18.30;99.90;;;;;;6095592;23;20410;-86
2021/09/25 00:58:26;;;;;;;2.60;2.00;;;18.30;99.90;;;;;;6127008;23;20458;-85
2021/09/25 01:00:55;;;;;;;4.83;2.73;;;18.10;99.90;;;;;;6096230;23;20395;-84
2021/09/25 01:03:22;;;;;;;2.80;2.30;;;18.00;99.90;;;;;;6123247;23;20553;-84
2021/09/25 01:05:49;;;;;;;2.60;2.40;;;18.00;99.90;;;;;;6096988;23;20414;-83
2021/09/25 01:08:16;;;;;;;2.27;1.70;;;18.00;99.90;;;;;;6096830;23;20444;-84
2021/09/25 01:10:43;;;;;;;3.17;2.87;;;18.00;99.90;;;;;;6142545;23;20501;-86
2021/09/25 01:13:10;;;;;;;2.30;2.10;;;18.00;99.90;;;;;;6117938;23;21105;-88
2021/09/25 01:15:39;;;;;;;2.83;2.40;;;17.90;99.90;;;;;;6118941;23;20417;-86
2021/09/25 01:18:08;;;;;;;2.77;2.50;;;17.90;99.90;;;;;;6143257;23;20419;-85
2021/09/25 01:20:38;;;;;;;2.60;2.40;;;17.90;99.90;;;;;;6120271;23;20418;-86
2021/09/25 01:23:08;;;;;;;6.70;2.67;;;17.90;99.90;;;;;;6146951;23;21013;-85
2021/09/25 01:25:41;;;;;;;3.27;2.97;;;18.20;99.90;;;;;;6119177;23;20406;-85
2021/09/25 01:28:11;;;;;;;3.17;2.63;;;18.10;99.90;;;;;;6099542;23;20431;-82
2021/09/25 01:30:41;;;;;;;3.53;2.20;;;18.00;99.90;;;;;;6096321;23;20423;-83
2021/09/25 01:33:10;;;;;;;3.03;2.40;;;17.90;99.90;;;;;;6119558;23;20984;-85
2021/09/25 01:35:40;;;;;;;3.70;2.40;;;17.90;99.90;;;;;;6086789;23;20560;-85
2021/09/25 01:38:06;;;;;;;3.10;2.40;;;17.80;99.90;;;;;;6120216;23;20451;-84
2021/09/25 01:40:33;;;;;;;3.13;2.50;;;17.70;99.90;;;;;;6119072;23;20993;-83
2021/09/25 01:43:02;;;;;;;2.93;2.73;;;17.90;99.90;;;;;;6094688;23;20422;-86
2021/09/25 01:45:31;;;;;;;29.03;22.67;;;18.00;99.90;;;;;;6086099;23;20411;-83
2021/09/25 01:47:58;;;;;;;3.50;3.20;;;17.90;99.90;;;;;;6120853;23;20431;-83
2021/09/25 01:50:24;;;;;;;3.37;2.43;;;17.90;99.90;;;;;;6115429;23;21011;-85
2021/09/25 01:52:51;;;;;;;2.67;2.47;;;17.80;99.90;;;;;;6090016;23;21229;-84
2021/09/25 01:55:18;;;;;;;3.20;2.50;;;17.90;99.90;;;;;;6117699;23;20525;-83
2021/09/25 01:57:49;;;;;;;2.90;2.70;;;17.80;99.90;;;;;;6121858;23;20993;-83
2021/09/25 02:00:16;;;;;;;2.90;2.70;;;17.80;99.90;;;;;;6127122;23;20498;-82
2021/09/25 02:02:50;;;;;;;3.50;3.20;;;17.70;99.90;;;;;;6127630;23;20466;-85
2021/09/25 02:05:29;;;;;;;3.10;2.80;;;17.70;99.90;;;;;;6119296;23;20453;-85
2021/09/25 02:07:56;;;;;;;2.87;2.67;;;17.60;99.90;;;;;;6112066;23;20512;-86
2021/09/25 02:10:22;;;;;;;3.43;3.10;;;17.50;99.90;;;;;;6124110;23;20426;-86
2021/09/25 02:12:54;;;;;;;3.33;2.97;;;17.40;99.90;;;;;;6126803;23;20429;-87
2021/09/25 02:15:23;;;;;;;3.03;2.73;;;17.30;99.90;;;;;;6095202;23;20435;-85
2021/09/25 02:17:58;;;;;;;4.07;3.30;;;17.30;99.90;;;;;;6127802;23;20534;-88
2021/09/25 02:20:25;;;;;;;3.03;2.83;;;17.30;99.90;;;;;;6093303;23;20979;-83
2021/09/25 02:22:56;;;;;;;3.73;3.43;;;17.30;99.90;;;;;;6120610;23;20430;-87
2021/09/25 02:25:29;;;;;;;3.00;2.70;;;17.30;99.90;;;;;;6121216;23;20491;-85
2021/09/25 02:28:05;;;;;;;3.50;3.20;;;17.30;99.90;;;;;;6113797;23;20473;-86
2021/09/25 02:30:32;;;;;;;3.90;3.50;;;17.30;99.90;;;;;;6097079;23;20679;-85
2021/09/25 02:33:02;;;;;;;3.27;3.07;;;17.50;99.90;;;;;;6091334;23;20414;-85
2021/09/25 02:35:32;;;;;;;3.70;3.40;;;17.50;99.90;;;;;;6090153;23;20443;-86
2021/09/25 02:38:10;;;;;;;3.67;3.37;;;17.40;99.90;;;;;;6114977;23;20431;-87
2021/09/25 02:40:47;;;;;;;3.90;3.23;;;17.20;99.90;;;;;;6084884;23;20525;-87
2021/09/25 02:43:21;;;;;;;3.20;3.00;;;17.20;99.90;;;;;;6092981;23;20500;-84
2021/09/25 02:45:48;;;;;;;3.50;3.10;;;17.20;99.90;;;;;;6088369;23;20469;-83
2021/09/25 02:48:29;;;;;;;3.53;3.27;;;17.20;99.90;;;;;;6093511;23;20510;-85
2021/09/25 02:51:03;;;;;;;3.83;3.43;;;17.30;99.90;;;;;;6082694;23;20555;-86
2021/09/25 02:53:30;;;;;;;4.00;3.00;;;17.30;99.90;;;;;;6089120;23;20914;-85
2021/09/25 02:56:07;;;;;;;3.90;3.60;;;17.30;99.90;;;;;;6091523;23;20477;-87
2021/09/25 02:58:34;;;;;;;4.13;3.73;;;17.30;99.90;;;;;;6113974;23;20524;-84
2021/09/25 03:01:03;;;;;;;3.93;3.57;;;17.30;99.90;;;;;;6088992;23;20419;-86
2021/09/25 03:03:32;;;;;;;3.60;3.30;;;17.20;99.90;;;;;;6090108;23;20486;-87
2021/09/25 03:06:02;;;;;;;4.70;3.13;;;17.10;99.90;;;;;;6092408;23;21254;-87
2021/09/25 03:08:29;;;;;;;4.30;3.70;;;17.20;99.90;;;;;;6088769;23;20431;-85
2021/09/25 03:10:56;;;;;;;3.23;3.03;;;17.20;99.90;;;;;;6115699;23;20415;-86
2021/09/25 03:13:22;;;;;;;3.37;3.07;;;17.30;99.90;;;;;;6090208;23;20411;-85
2021/09/25 03:15:49;;;;;;;3.50;3.20;;;17.20;99.90;;;;;;6112837;23;20776;-83
2021/09/25 03:18:16;;;;;;;3.43;3.23;;;17.20;99.90;;;;;;6112588;23;20445;-84
2021/09/25 03:20:43;;;;;;;2.80;2.60;;;17.20;99.90;;;;;;6114069;23;20415;-86
2021/09/25 03:23:10;;;;;;;3.13;2.80;;;17.10;99.90;;;;;;6091133;23;20446;-86
2021/09/25 03:25:37;;;;;;;4.03;3.03;;;17.20;99.90;;;;;;6087606;23;20442;-85
2021/09/25 03:28:04;;;;;;;2.97;2.77;;;17.10;99.90;;;;;;6125416;23;20430;-86
2021/09/25 03:30:31;;;;;;;2.97;2.70;;;17.00;99.90;;;;;;6072869;23;1114340;-86
2021/09/25 03:33:13;;;;;;;6.03;3.00;;;17.00;99.90;;;;;;6097845;23;20426;-88
2021/09/25 03:35:46;;;;;;;2.87;2.67;;;17.00;99.90;;;;;;6120519;23;20446;-87
2021/09/25 03:38:17;;;;;;;2.70;2.50;;;17.00;99.90;;;;;;6119699;23;20834;-84
2021/09/25 03:40:45;;;;;;;3.33;3.03;;;17.20;99.90;;;;;;6130032;23;20415;-83
2021/09/25 03:43:12;;;;;;;2.87;2.53;;;17.30;99.90;;;;;;6133275;23;20427;-84
2021/09/25 03:45:41;;;;;;;3.40;3.10;;;17.10;99.90;;;;;;6070025;23;21011;-84
2021/09/25 03:48:10;;;;;;;3.53;3.23;;;17.20;99.90;;;;;;5996260;23;20994;-85
2021/09/25 03:50:40;;;;;;;2.90;2.60;;;17.30;99.90;;;;;;6096196;23;20439;-84
2021/09/25 03:53:07;;;;;;;3.23;2.93;;;17.20;99.90;;;;;;6123830;23;20413;-86
2021/09/25 03:55:36;;;;;;;3.43;3.13;;;17.10;99.90;;;;;;6095217;23;20453;-86
2021/09/25 03:58:03;;;;;;;3.77;2.97;;;17.10;99.90;;;;;;6118368;23;20430;-89
2021/09/25 04:00:30;;;;;;;4.90;3.03;;;17.10;99.90;;;;;;6094231;23;21027;-86
2021/09/25 04:02:57;;;;;;;5.60;3.57;;;16.90;99.90;;;;;;6120423;23;20814;-86
2021/09/25 04:05:27;;;;;;;3.87;3.57;;;16.80;99.90;;;;;;6114327;23;20422;-84
2021/09/25 04:07:54;;;;;;;3.13;2.80;;;16.90;99.90;;;;;;6092798;23;20442;-85
2021/09/25 04:10:23;;;;;;;3.70;3.40;;;16.90;99.90;;;;;;6095990;23;20477;-84
2021/09/25 04:12:50;;;;;;;4.13;3.33;;;16.80;99.90;;;;;;6118652;23;20415;-84
2021/09/25 04:15:22;;;;;;;3.37;3.07;;;16.50;99.90;;;;;;6115933;23;20446;-84
2021/09/25 04:17:55;;;;;;;3.77;3.43;;;16.60;99.90;;;;;;6118498;23;20490;-86
2021/09/25 04:20:21;;;;;;;3.67;3.37;;;16.50;99.90;;;;;;6116162;23;20439;-85
2021/09/25 04:22:51;;;;;;;5.17;3.50;;;16.40;99.90;;;;;;6117028;23;20414;-86
2021/09/25 04:25:19;;;;;;;4.20;3.07;;;16.20;99.90;;;;;;6117021;23;20432;-84
2021/09/25 04:27:53;;;;;;;2.70;2.50;;;16.20;99.90;;;;;;6120123;23;20423;-87
2021/09/25 04:30:21;;;;;;;3.33;3.03;;;16.20;99.90;;;;;;6101821;23;20418;-85
2021/09/25 04:32:47;;;;;;;4.10;2.50;;;16.20;99.90;;;;;;6120934;23;20387;-87
2021/09/25 04:35:16;;;;;;;2.93;2.73;;;16.30;99.90;;;;;;6119413;23;20461;-84
2021/09/25 04:37:43;;;;;;;3.53;3.20;;;16.40;99.90;;;;;;6121455;23;21164;-84
2021/09/25 04:40:13;;;;;;;4.13;2.97;;;16.60;99.90;;;;;;6117816;23;20415;-84
2021/09/25 04:42:40;;;;;;;3.40;3.10;;;16.60;99.90;;;;;;6095853;23;20395;-84
2021/09/25 04:45:11;;;;;;;3.93;3.50;;;16.50;99.90;;;;;;6093212;23;20910;-84
2021/09/25 04:47:42;;;;;;;6.57;3.70;;;16.50;99.90;;;;;;6099592;23;21147;-85
2021/09/25 04:50:14;;;;;;;3.70;3.40;;;16.50;99.90;;;;;;6089910;23;20422;-85
2021/09/25 04:52:41;;;;;;;5.10;3.73;;;16.40;99.90;;;;;;6092379;23;20453;-82
2021/09/25 04:55:18;;;;;;;3.60;3.30;;;16.20;99.90;;;;;;6096683;23;20422;-84
2021/09/25 04:57:45;;;;;;;4.47;3.70;;;16.20;99.90;;;;;;6115881;23;20434;-85
2021/09/25 05:00:17;;;;;;;5.07;4.13;;;16.10;99.90;;;;;;6120609;23;20415;-85
2021/09/25 05:02:49;;;;;;;5.13;3.20;;;16.00;99.90;;;;;;6120231;23;20415;-85
2021/09/25 05:05:22;;;;;;;3.50;3.20;;;16.00;99.90;;;;;;6121940;23;20391;-85
2021/09/25 05:07:49;;;;;;;5.23;3.70;;;16.10;99.90;;;;;;6080962;23;21025;-86
2021/09/25 05:10:26;;;;;;;4.23;3.83;;;16.20;99.90;;;;;;6095854;23;20423;-86
2021/09/25 05:12:53;;;;;;;6.70;3.43;;;16.10;99.90;;;;;;6123211;23;20440;-87
2021/09/25 05:15:20;;;;;;;3.60;3.30;;;16.00;99.90;;;;;;6139330;23;20446;-86
2021/09/25 05:17:47;;;;;;;3.53;3.23;;;16.00;99.90;;;;;;6116226;23;20450;-84
2021/09/25 05:20:15;;;;;;;5.03;3.57;;;15.90;99.90;;;;;;6116228;23;20417;-86
2021/09/25 05:22:43;;;;;;;3.90;3.60;;;15.70;99.90;;;;;;6092776;23;20917;-85
2021/09/25 05:25:16;;;;;;;3.57;3.27;;;15.80;99.90;;;;;;6116604;23;20426;-88
2021/09/25 05:27:48;;;;;;;3.40;3.20;;;15.70;99.90;;;;;;6119612;23;20439;-87
2021/09/25 05:30:15;;;;;;;3.77;3.47;;;15.80;99.90;;;;;;6118809;23;20419;-87
2021/09/25 05:32:44;;;;;;;4.67;4.07;;;16.20;99.90;;;;;;6099059;23;20410;-86
2021/09/25 05:35:14;;;;;;;5.10;4.50;;;16.30;99.90;;;;;;6091058;23;20450;-86
2021/09/25 05:37:41;;;;;;;4.50;4.07;;;16.20;99.90;;;;;;6092672;23;21130;-84
2021/09/25 05:40:08;;;;;;;5.50;5.00;;;16.10;99.90;;;;;;6118678;23;21019;-85
2021/09/25 05:42:40;;;;;;;4.90;4.27;;;16.00;99.90;;;;;;6093856;23;20465;-84
2021/09/25 05:45:15;;;;;;;5.30;4.23;;;16.10;99.90;;;;;;6097132;23;20414;-87
2021/09/25 05:47:45;;;;;;;5.80;4.57;;;16.10;99.90;;;;;;6090872;23;20946;-85
2021/09/25 05:50:19;;;;;;;5.07;4.37;;;16.00;99.90;;;;;;6092098;23;20497;-87
2021/09/25 05:52:53;;;;;;;5.43;3.93;;;16.10;99.90;;;;;;6114137;23;20821;-86
2021/09/25 05:55:23;;;;;;;4.83;4.40;;;16.00;99.90;;;;;;6092795;23;20449;-85
2021/09/25 05:57:59;;;;;;;4.93;4.50;;;16.00;99.90;;;;;;6090850;23;20457;-87
2021/09/25 06:00:26;;;;;;;6.33;3.93;;;15.90;99.90;;;;;;6089542;23;20474;-85
2021/09/25 06:02:53;;;;;;;5.57;4.70;;;16.10;99.90;;;;;;6120663;23;20445;-85
2021/09/25 06:05:26;;;;;;;5.63;5.13;;;16.30;99.90;;;;;;6091191;23;20410;-85
2021/09/25 06:07:56;;;;;;;4.83;4.40;;;16.30;99.90;;;;;;6093463;23;20440;-87
2021/09/25 06:10:39;;;;;;;4.50;4.10;;;16.10;99.90;;;;;;6082838;23;20438;-84
2021/09/25 06:13:13;;;;;;;4.77;4.30;;;16.20;99.90;;;;;;6107795;23;20415;-84
2021/09/25 06:15:41;;;;;;;5.00;4.20;;;16.30;99.90;;;;;;6099356;23;20442;-84
2021/09/25 06:18:22;;;;;;;6.30;4.40;;;16.30;99.90;;;;;;6119878;23;20426;-86
2021/09/25 06:20:58;;;;;;;6.73;4.00;;;16.00;99.90;;;;;;6097403;23;20965;-90
2021/09/25 06:23:27;;;;;;;5.20;4.70;;;16.00;99.90;;;;;;6121439;23;20494;-87
2021/09/25 06:25:57;;;;;;;4.40;4.00;;;15.90;99.90;;;;;;6089668;23;20493;-86
2021/09/25 06:28:38;;;;;;;7.23;4.27;;;15.90;99.90;;;;;;6096019;23;20438;-86
2021/09/25 06:31:10;;;;;;;4.90;4.50;;;16.10;99.90;;;;;;6119234;23;20434;-86
2021/09/25 06:33:45;;;;;;;6.07;4.87;;;16.30;99.90;;;;;;6097717;23;20968;-86
2021/09/25 06:36:40;;;;;;;6.40;5.50;;;16.30;99.90;;;;;;6093221;23;20446;-85
2021/09/25 06:39:13;;;;;;;5.60;4.93;;;16.30;99.90;;;;;;6094609;23;20430;-86
2021/09/25 06:41:46;;;;;;;5.43;4.70;;;16.30;99.90;;;;;;6089107;23;20422;-85
2021/09/25 06:44:23;;;;;;;5.63;5.13;;;16.30;99.90;;;;;;6089519;23;20471;-85
2021/09/25 06:46:50;;;;;;;5.83;4.67;;;16.20;99.90;;;;;;6118817;23;20415;-86
2021/09/25 06:49:18;;;;;;;5.07;4.63;;;16.20;99.90;;;;;;6121175;23;20466;-86
2021/09/25 06:52:05;;;;;;;5.20;4.70;;;16.10;99.90;;;;;;6104642;23;20411;-86
2021/09/25 06:54:59;;;;;;;5.40;4.90;;;16.30;99.90;;;;;;6109710;23;21030;-86
2021/09/25 06:57:29;;;;;;;5.60;4.60;;;16.30;99.90;;;;;;6130801;23;20415;-84
2021/09/25 07:00:18;;;;;;;5.97;4.87;;;16.40;99.90;;;;;;6088791;23;20397;-87
2021/09/25 07:02:50;;;;;;;5.43;4.93;;;16.50;99.90;;;;;;6107530;23;20398;-87
2021/09/25 07:05:24;;;;;;;5.60;5.10;;;16.50;99.90;;;;;;6118897;23;20470;-85
2021/09/25 07:07:55;;;;;;;4.93;4.43;;;16.60;99.90;;;;;;6122714;23;20442;-88
2021/09/25 07:10:32;;;;;;;4.50;4.10;;;18.90;99.90;;;;;;6132306;23;20395;-87
2021/09/25 07:12:59;;;;;;;4.73;4.13;;;21.80;97.20;;;;;;6155475;23;20457;-86
2021/09/25 07:15:35;;;;;;;5.17;4.77;;;23.50;93.20;;;;;;6163794;23;20554;-87
2021/09/25 07:18:11;;;;;;;4.53;4.10;;;24.90;90.20;;;;;;6119089;23;20482;-86
2021/09/25 07:20:47;;;;;;;4.83;4.40;;;25.40;86.30;;;;;;6066955;23;20399;-85
2021/09/25 07:23:19;;;;;;;4.57;4.13;;;26.20;83.00;;;;;;6108450;23;20955;-87
2021/09/25 07:25:51;;;;;;;4.57;4.10;;;26.60;80.20;;;;;;6114473;23;20410;-87
2021/09/25 07:28:28;;;;;;;4.60;4.30;;;27.10;77.70;;;;;;6140836;23;21009;-87
2021/09/25 07:30:56;;;;;;;5.20;3.97;;;28.10;74.20;;;;;;6117846;23;20411;-86
2021/09/25 07:33:28;;;;;;;4.57;4.17;;;28.30;70.10;;;;;;6117974;23;20396;-84
2021/09/25 07:36:00;;;;;;;4.77;4.40;;;28.20;69.30;;;;;;6106441;23;21026;-84
2021/09/25 07:38:34;;;;;;;5.43;4.93;;;27.90;68.70;;;;;;6091899;23;20432;-83
2021/09/25 07:41:09;;;;;;;4.57;4.17;;;27.90;69.40;;;;;;6094605;23;20868;-83
2021/09/25 07:44:02;;;;;;;4.97;4.57;;;27.80;68.50;;;;;;6092700;23;20977;-85
2021/09/25 07:46:35;;;;;;;5.10;4.63;;;28.20;69.40;;;;;;6090390;23;20829;-85
2021/09/25 07:49:11;;;;;;;7.97;7.37;;;28.00;67.80;;;;;;6090046;23;20436;-85
2021/09/25 07:51:43;;;;;;;9.30;7.80;;;27.80;69.00;;;;;;6110074;23;20451;-86
2021/09/25 07:54:18;;;;;;;5.97;5.47;;;25.50;72.30;;;;;;6090121;23;20415;-83
2021/09/25 07:56:54;;;;;;;10.77;9.50;;;23.30;80.70;;;;;;6088541;23;20450;-86
2021/09/25 07:59:27;;;;;;;8.07;7.37;;;21.60;89.00;;;;;;6118002;23;20439;-87
2021/09/25 08:01:59;;;;;;;8.37;7.67;;;20.80;92.40;;;;;;6116830;23;20470;-87
2021/09/25 08:04:29;;;;;;;9.23;8.00;;;20.30;94.40;;;;;;6088652;23;20430;-86
2021/09/25 08:06:56;;;;;;;6.97;6.27;;;20.10;95.50;;;;;;6068224;23;20430;-86
2021/09/25 08:09:30;;;;;;;7.93;7.13;;;19.80;96.40;;;;;;6094993;23;20446;-86
2021/09/25 08:11:59;;;;;;;7.97;7.13;;;19.50;97.40;;;;;;6093528;23;20942;-87
2021/09/25 08:14:33;;;;;;;7.97;7.10;;;19.40;98.10;;;;;;6093543;23;20407;-85
2021/09/25 08:17:03;;;;;;;7.40;6.70;;;19.30;98.40;;;;;;6097885;23;20447;-85
2021/09/25 08:19:35;;;;;;;7.90;6.90;;;19.20;98.80;;;;;;6123962;23;20947;-87
2021/09/25 08:22:04;;;;;;;7.77;7.03;;;19.20;98.80;;;;;;6083276;23;20426;-86
2021/09/25 08:24:37;;;;;;;12.10;6.07;;;19.10;98.90;;;;;;6150925;23;20445;-86
2021/09/25 08:27:04;;;;;;;6.20;5.60;;;19.10;99.40;;;;;;6166468;23;20441;-87
2021/09/25 08:29:30;;;;;;;6.17;5.57;;;19.10;99.60;;;;;;6154525;23;20521;-86
2021/09/25 08:32:07;;;;;;;7.30;5.60;;;19.10;99.40;;;;;;6127706;23;20863;-86
2021/09/25 08:34:40;;;;;;;7.77;5.90;;;18.90;99.50;;;;;;6125718;23;20756;-86
2021/09/25 08:38:00;;;;;;;8.70;6.40;;;18.90;99.90;;;;;;6133526;23;20877;-85
2021/09/25 08:40:35;;;;;;;7.07;6.43;;;19.00;99.90;;;;;;6149059;23;20430;-87
2021/09/25 08:43:03;;;;;;;6.50;5.90;;;19.10;99.90;;;;;;6148716;23;20416;-87
2021/09/25 08:45:30;;;;;;;7.13;6.43;;;19.20;99.90;;;;;;6150304;23;20409;-87
2021/09/25 08:48:05;;;;;;;15.10;8.73;;;19.20;99.90;;;;;;6140857;23;20948;-83
2021/09/25 08:50:32;;;;;;;5.90;5.30;;;19.20;99.90;;;;;;6146423;23;20989;-84
2021/09/25 08:53:18;;;;;;;6.27;5.73;;;19.20;99.90;;;;;;6117236;23;20453;-85
2021/09/25 08:55:52;;;;;;;6.50;5.90;;;19.30;99.90;;;;;;6141470;23;20484;-84
2021/09/25 08:58:19;;;;;;;6.43;5.83;;;19.30;99.90;;;;;;6166110;23;20617;-86
2021/09/25 09:00:55;;;;;;;7.17;6.47;;;19.40;99.90;;;;;;6138919;23;20421;-84
2021/09/25 09:03:44;;;;;;;6.73;5.90;;;19.50;99.80;;;;;;6121498;23;20417;-85
2021/09/25 09:06:31;;;;;;;8.13;7.33;;;19.60;99.60;;;;;;6153741;23;20453;-85
2021/09/25 09:09:15;;;;;;;8.73;6.87;;;19.70;99.30;;;;;;6153824;23;20426;-85
2021/09/25 09:11:53;;;;;;;10.40;8.67;;;19.70;98.70;;;;;;6155518;23;20761;-86
2021/09/25 09:14:22;;;;;;;9.37;8.47;;;19.70;99.20;;;;;;6151978;23;20396;-84
2021/09/25 09:16:57;;;;;;;9.33;8.43;;;19.60;98.90;;;;;;6158438;23;20426;-85
2021/09/25 09:19:35;;;;;;;9.37;8.47;;;19.80;99.20;;;;;;6169582;23;20436;-84
2021/09/25 09:22:04;;;;;;;9.40;8.40;;;20.00;98.70;;;;;;6165554;23;20545;-86
2021/09/25 09:24:45;;;;;;;10.40;9.00;;;20.10;98.30;;;;;;6163980;23;20880;-82
2021/09/25 09:27:32;;;;;;;9.97;8.63;;;20.00;98.40;;;;;;6150795;23;20421;-83
2021/09/25 09:30:18;;;;;;;9.63;8.77;;;20.10;98.10;;;;;;6152849;23;20417;-87
2021/09/25 09:32:45;;;;;;;9.57;6.93;;;20.10;98.10;;;;;;6155980;23;20406;-83
2021/09/25 09:35:19;;;;;;;7.77;7.07;;;20.10;98.30;;;;;;6153361;23;20450;-84
2021/09/25 09:37:47;;;;;;;5.97;5.37;;;20.10;97.60;;;;;;6148212;23;20426;-85
2021/09/25 09:40:15;;;;;;;5.33;4.87;;;20.40;97.90;;;;;;6147027;23;20525;-86
2021/09/25 09:42:43;;;;;;;4.07;3.70;;;21.50;96.30;;;;;;6151712;23;20414;-86
2021/09/25 09:45:10;;;;;;;5.07;4.17;;;23.00;93.50;;;;;;6147302;23;20418;-87
2021/09/25 09:47:46;;;;;;;4.70;4.30;;;24.30;90.40;;;;;;6150428;23;20496;-87
2021/09/25 09:50:14;;;;;;;6.40;5.50;;;25.30;86.80;;;;;;6150301;23;20417;-84
2021/09/25 09:52:41;;;;;;;5.13;4.63;;;26.20;82.90;;;;;;6144839;23;20441;-86
2021/09/25 09:55:08;;;;;;;5.17;4.53;;;27.10;77.00;;;;;;6147390;23;20437;-88
2021/09/25 09:57:35;;;;;;;6.17;5.60;;;27.40;75.10;;;;;;6150022;23;20530;-84
2021/09/25 10:00:03;;;;;;;5.80;5.30;;;27.60;73.20;;;;;;6147975;23;20414;-87
2021/09/25 10:02:31;;;;;;;5.57;4.60;;;27.50;72.50;;;;;;6146268;23;20390;-87
2021/09/25 10:04:58;;;;;;;4.30;3.90;;;26.80;73.40;;;;;;6150015;23;20461;-84
2021/09/25 10:07:25;;;;;;;4.80;4.30;;;26.70;74.40;;;;;;6155173;23;20390;-86
2021/09/25 10:09:53;;;;;;;4.10;3.70;;;26.80;73.90;;;;;;6165119;23;20444;-87
2021/09/25 10:12:23;;;;;;;4.70;4.30;;;27.00;73.80;;;;;;6163107;23;20378;-87
2021/09/25 10:14:50;;;;;;;5.50;4.03;;;27.30;71.70;;;;;;6157497;23;20477;-88
2021/09/25 10:17:17;;;;;;;4.73;4.30;;;27.40;71.90;;;;;;6153743;23;20464;-88
2021/09/25 10:19:44;;;;;;;5.40;4.90;;;27.80;71.10;;;;;;6151674;23;20430;-88
2021/09/25 10:22:19;;;;;;;3.90;3.60;;;27.60;70.10;;;;;;6151693;23;21136;-85
2021/09/25 10:24:54;;;;;;;4.50;4.10;;;27.00;71.20;;;;;;6151147;23;20418;-86
2021/09/25 10:27:25;;;;;;;4.57;3.80;;;26.00;74.80;;;;;;6150472;23;20402;-87
2021/09/25 10:29:55;;;;;;;4.23;3.87;;;25.30;77.90;;;;;;6147644;23;20515;-86
2021/09/25 10:32:25;;;;;;;5.87;4.33;;;25.30;79.70;;;;;;6143262;23;20411;-87
2021/09/25 10:35:11;;;;;;;4.43;4.03;;;25.80;78.10;;;;;;6153031;23;20414;-87
2021/09/25 10:37:48;;;;;;;3.47;3.20;;;25.90;77.60;;;;;;6149451;23;20550;-85
2021/09/25 10:40:37;;;;;;;3.97;3.67;;;26.80;74.60;;;;;;6152292;23;20398;-88
2021/09/25 10:43:26;;;;;;;5.20;4.00;;;26.70;73.40;;;;;;6149595;23;20402;-87
2021/09/25 10:45:56;;;;;;;4.00;3.60;;;27.40;72.20;;;;;;6149273;23;20779;-87
2021/09/25 10:48:22;;;;;;;4.60;3.50;;;27.80;70.70;;;;;;6149162;23;20505;-86
2021/09/25 10:51:11;;;;;;;3.80;3.53;;;27.90;70.00;;;;;;6148353;23;20748;-86
2021/09/25 10:53:40;;;;;;;3.80;3.50;;;27.20;69.40;;;;;;6149516;23;20398;-85
2021/09/25 10:56:20;;;;;;;3.50;3.20;;;27.50;70.80;;;;;;6152559;23;20433;-85
2021/09/25 10:59:00;;;;;;;3.43;3.10;;;28.00;68.40;;;;;;6144361;23;20440;-85
2021/09/25 11:01:32;;;;;;;4.07;3.00;;;27.60;69.70;;;;;;6152706;23;20404;-85
2021/09/25 11:04:07;;;;;;;4.40;3.53;;;28.40;67.50;;;;;;6149939;23;20397;-87
2021/09/25 11:06:41;;;;;;;2.97;2.77;;;28.20;66.60;;;;;;6150003;23;20418;-84
2021/09/25 11:09:30;;;;;;;3.40;3.00;;;28.40;66.30;;;;;;6149042;23;20520;-85
2021/09/25 11:12:07;;;;;;;5.00;3.37;;;27.90;66.60;;;;;;6148943;23;20425;-88
2021/09/25 11:14:46;;;;;;;4.00;3.60;;;27.90;67.40;;;;;;6123609;23;20413;-86
2021/09/25 11:17:19;;;;;;;4.13;3.73;;;27.90;66.20;;;;;;6125562;23;20520;-87
2021/09/25 11:20:08;;;;;;;3.90;3.60;;;27.80;66.70;;;;;;6127196;23;21055;-86
2021/09/25 11:22:38;;;;;;;2.97;2.77;;;27.80;66.30;;;;;;6154678;23;20519;-84
2021/09/25 11:25:11;;;;;;;5.80;3.00;;;27.80;66.50;;;;;;6155801;23;20497;-87
2021/09/25 11:27:37;;;;;;;3.07;2.77;;;27.50;67.50;;;;;;6126144;23;20445;-87
2021/09/25 11:30:04;;;;;;;3.30;3.10;;;27.70;67.80;;;;;;6126987;23;20416;-87
2021/09/25 11:32:40;;;;;;;2.43;2.33;;;28.00;66.10;;;;;;6153638;23;20422;-85
2021/09/25 11:35:29;;;;;;;3.60;3.30;;;27.50;67.40;;;;;;6126824;23;20397;-88
2021/09/25 11:40:49;;;;;;;3.07;2.80;;;28.40;64.20;;;;;;6153410;23;20579;-84
2021/09/25 11:43:18;;;;;;;2.83;2.63;;;27.80;65.10;;;;;;6156347;23;20457;-86
2021/09/25 11:45:51;;;;;;;3.50;2.93;;;27.70;65.10;;;;;;6157883;23;20414;-86
2021/09/25 11:48:35;;;;;;;2.20;2.10;;;27.70;64.60;;;;;;6160021;23;20810;-87
2021/09/25 11:51:04;;;;;;;2.83;2.63;;;28.20;63.10;;;;;;6159363;23;20406;-86
2021/09/25 11:53:32;;;;;;;2.57;2.37;;;28.80;61.40;;;;;;6136645;23;20421;-88
2021/09/25 11:56:00;;;;;;;2.90;2.70;;;29.20;59.60;;;;;;6104718;23;20442;-87
2021/09/25 11:58:27;;;;;;;2.40;2.20;;;29.50;58.30;;;;;;6159345;23;20461;-88
2021/09/25 12:00:59;;;;;;;3.00;2.10;;;28.70;59.70;;;;;;6131100;23;20410;-87
2021/09/25 12:03:29;;;;;;;2.20;2.00;;;28.70;59.20;;;;;;6146368;23;20917;-87
2021/09/25 12:06:00;;;;;;;2.23;2.13;;;28.90;58.00;;;;;;6155057;23;20401;-86
2021/09/25 12:08:29;;;;;;;3.40;2.13;;;28.30;60.60;;;;;;6152735;23;20465;-87
2021/09/25 12:11:04;;;;;;;2.47;2.30;;;29.00;58.80;;;;;;6150921;23;20422;-88
2021/09/25 12:13:44;;;;;;;4.60;2.40;;;29.00;58.20;;;;;;6152593;23;21310;-85
2021/09/25 12:16:16;;;;;;;2.60;2.40;;;29.40;57.80;;;;;;6156208;23;21042;-87
2021/09/25 12:18:47;;;;;;;2.90;2.63;;;29.60;56.50;;;;;;6154954;23;20430;-87
2021/09/25 12:21:16;;;;;;;2.47;2.27;;;29.10;57.00;;;;;;6165664;23;20445;-88
2021/09/25 12:23:53;;;;;;;1.83;1.73;;;28.60;57.50;;;;;;6168814;23;20496;-87
2021/09/25 12:26:23;;;;;;;2.63;2.43;;;28.80;57.40;;;;;;6167648;23;20410;-86
2021/09/25 12:29:02;;;;;;;2.60;2.40;;;29.10;57.20;;;;;;6152635;23;20430;-84
2021/09/25 12:31:30;;;;;;;2.37;2.00;;;29.10;57.00;;;;;;6146663;23;20405;-86
2021/09/25 12:34:28;;;;;;;2.20;2.00;;;29.30;57.20;;;;;;6147110;23;20410;-84
2021/09/25 12:36:59;;;;;;;2.80;2.10;;;29.40;56.50;;;;;;6114246;23;20791;-86
2021/09/25 12:39:29;;;;;;;2.70;2.50;;;29.70;56.90;;;;;;6143922;23;20440;-85
2021/09/25 12:41:57;;;;;;;3.20;2.87;;;29.70;56.90;;;;;;6144911;23;21086;-86
2021/09/25 12:44:28;;;;;;;4.43;2.30;;;29.40;57.70;;;;;;6147619;23;20406;-86
2021/09/25 12:46:57;;;;;;;2.50;2.30;;;28.60;59.20;;;;;;6139905;23;20489;-84
2021/09/25 12:49:35;;;;;;;2.50;2.30;;;28.70;59.10;;;;;;6145026;23;20457;-88
2021/09/25 12:52:08;;;;;;;2.40;2.20;;;28.50;59.60;;;;;;6141963;23;20420;-89
2021/09/25 12:54:37;;;;;;;2.80;2.60;;;28.20;59.60;;;;;;6137656;23;20421;-84
2021/09/25 12:57:07;;;;;;;2.40;2.13;;;27.90;60.90;;;;;;6143307;23;20524;-83
2021/09/25 12:59:45;;;;;;;3.40;2.37;;;27.50;62.40;;;;;;6141666;23;20433;-87
2021/09/25 13:02:18;;;;;;;3.00;2.80;;;27.60;62.50;;;;;;6143764;23;20412;-86
2021/09/25 13:04:47;;;;;;;5.77;3.00;;;28.00;62.40;;;;;;6151445;23;20409;-84
2021/09/25 13:07:30;;;;;;;2.87;2.60;;;28.50;61.50;;;;;;6145089;23;20607;-84
2021/09/25 13:10:06;;;;;;;2.63;2.43;;;28.70;60.90;;;;;;6147647;23;20393;-86
2021/09/25 13:12:42;;;;;;;2.83;2.63;;;28.70;60.20;;;;;;6152958;23;20493;-85